Time;durP1;ratioP1;P1;durP2;ratioP2;P2;SDS_P1;SDS_P2;PMS_P1;PMS_P2;Temp;Humidity;BMP_temperature;BMP_pressure;BME280_temperature;BME280_humidity;BME280_pressure;Samples;Min_cycle;Max_cycle;Signal;HPM_P1;HPM_P2
2020/12/04 00:00:16;;;;;;;27.70;18.58;;;1.40;99.90;;;;;;5068279;28;20439;-77
2020/12/04 00:02:42;;;;;;;29.58;19.65;;;1.40;99.90;;;;;;5068203;28;20060;-77
2020/12/04 00:05:09;;;;;;;30.45;20.38;;;1.30;99.90;;;;;;5083557;28;20040;-77
2020/12/04 00:07:35;;;;;;;28.98;18.98;;;1.30;99.90;;;;;;5086152;28;20055;-76
2020/12/04 00:10:02;;;;;;;28.88;19.42;;;1.30;99.90;;;;;;5068198;28;20048;-77
2020/12/04 00:12:28;;;;;;;32.35;21.08;;;1.30;99.90;;;;;;5085355;28;20051;-76
2020/12/04 00:14:54;;;;;;;26.55;20.13;;;1.30;99.90;;;;;;5075976;28;20102;-76
2020/12/04 00:17:21;;;;;;;24.92;18.58;;;1.30;99.90;;;;;;5064932;28;20052;-76
2020/12/04 00:19:47;;;;;;;30.20;19.58;;;1.30;99.90;;;;;;5088224;28;20047;-77
2020/12/04 00:22:13;;;;;;;30.92;20.55;;;1.30;99.90;;;;;;5097110;28;20054;-77
2020/12/04 00:24:40;;;;;;;28.20;19.13;;;1.40;99.90;;;;;;5063276;28;20126;-76
2020/12/04 00:27:06;;;;;;;27.15;19.83;;;1.30;99.90;;;;;;5066152;28;20046;-78
2020/12/04 00:29:32;;;;;;;31.65;19.15;;;1.40;99.90;;;;;;5085780;28;20489;-76
2020/12/04 00:31:59;;;;;;;29.83;20.23;;;1.40;99.90;;;;;;5085702;28;20046;-76
2020/12/04 00:34:25;;;;;;;37.25;23.08;;;1.40;99.90;;;;;;5084389;28;20058;-76
2020/12/04 00:36:53;;;;;;;34.97;20.35;;;1.40;99.90;;;;;;5046696;28;20131;-77
2020/12/04 00:39:20;;;;;;;30.60;21.08;;;1.40;99.90;;;;;;5030494;28;20526;-76
2020/12/04 00:41:46;;;;;;;29.88;21.00;;;1.40;99.90;;;;;;5064418;28;20056;-77
2020/12/04 00:44:13;;;;;;;30.98;20.60;;;1.40;99.90;;;;;;5064136;28;20049;-77
2020/12/04 00:46:40;;;;;;;33.13;20.08;;;1.40;99.90;;;;;;5065313;28;20048;-76
2020/12/04 00:49:07;;;;;;;31.40;20.95;;;1.40;99.90;;;;;;5065064;28;20512;-76
2020/12/04 00:51:34;;;;;;;28.65;19.02;;;1.40;99.90;;;;;;5089023;28;20127;-76
2020/12/04 00:54:03;;;;;;;28.38;20.25;;;1.50;99.90;;;;;;5067274;28;20048;-76
2020/12/04 00:56:32;;;;;;;37.75;22.20;;;1.50;99.90;;;;;;5066785;28;20059;-76
2020/12/04 00:59:02;;;;;;;32.72;21.02;;;1.50;99.90;;;;;;5067771;28;20055;-77
2020/12/04 01:01:28;;;;;;;27.23;18.65;;;1.50;99.90;;;;;;5083764;28;20501;-76
2020/12/04 01:03:54;;;;;;;31.90;19.35;;;1.50;99.90;;;;;;5082680;28;20055;-77
2020/12/04 01:06:21;;;;;;;29.33;21.10;;;1.50;99.90;;;;;;5066573;28;20058;-77
2020/12/04 01:08:48;;;;;;;31.85;20.88;;;1.60;99.90;;;;;;5084072;28;20055;-77
2020/12/04 01:11:14;;;;;;;29.48;19.48;;;1.60;99.90;;;;;;5084039;28;20036;-76
2020/12/04 01:13:40;;;;;;;34.63;20.95;;;1.50;99.90;;;;;;5066855;28;20512;-76
2020/12/04 01:16:10;;;;;;;27.92;19.55;;;1.60;99.90;;;;;;5066875;28;20044;-76
2020/12/04 01:18:38;;;;;;;28.83;17.17;;;1.60;99.90;;;;;;5059150;28;20494;-75
2020/12/04 01:21:06;;;;;;;28.80;17.80;;;1.60;99.90;;;;;;5096736;28;20131;-76
2020/12/04 01:23:32;;;;;;;31.25;20.67;;;1.60;99.90;;;;;;5104433;28;20047;-76
2020/12/04 01:25:59;;;;;;;25.08;17.60;;;1.60;99.90;;;;;;5104116;28;20488;-76
2020/12/04 01:28:25;;;;;;;33.05;20.70;;;1.50;99.90;;;;;;5090937;28;20040;-76
2020/12/04 01:30:51;;;;;;;28.38;20.00;;;1.50;99.90;;;;;;5082907;28;20135;-76
2020/12/04 01:33:18;;;;;;;26.13;17.63;;;1.50;99.90;;;;;;5066903;28;20050;-76
2020/12/04 01:35:44;;;;;;;23.75;18.15;;;1.50;99.90;;;;;;5083573;28;20066;-76
2020/12/04 01:38:10;;;;;;;32.65;19.35;;;1.50;99.90;;;;;;5084722;28;20118;-77
2020/12/04 01:40:37;;;;;;;31.17;20.65;;;1.50;99.90;;;;;;5080999;28;20540;-77
2020/12/04 01:43:03;;;;;;;31.23;20.15;;;1.50;99.90;;;;;;5085114;28;20058;-77
2020/12/04 01:45:32;;;;;;;27.33;20.17;;;1.50;99.90;;;;;;5066513;28;20044;-76
2020/12/04 01:47:58;;;;;;;33.85;21.63;;;1.50;99.90;;;;;;5066357;28;20058;-76
2020/12/04 01:50:25;;;;;;;34.30;21.45;;;1.50;99.90;;;;;;5094741;28;20039;-76
2020/12/04 01:52:51;;;;;;;37.10;22.23;;;1.60;99.90;;;;;;5103900;28;20067;-76
2020/12/04 01:55:18;;;;;;;33.40;22.40;;;1.60;99.90;;;;;;5076583;28;20523;-75
2020/12/04 01:57:46;;;;;;;29.10;18.63;;;1.60;99.90;;;;;;5082670;28;20052;-76
2020/12/04 02:00:13;;;;;;;35.35;21.67;;;1.60;99.90;;;;;;5049391;28;20044;-77
2020/12/04 02:02:43;;;;;;;36.60;22.23;;;1.50;99.90;;;;;;5067051;28;20127;-77
2020/12/04 02:05:10;;;;;;;26.55;19.88;;;1.50;99.90;;;;;;5085249;28;20408;-76
2020/12/04 02:07:43;;;;;;;34.33;22.23;;;1.60;99.90;;;;;;5053408;28;20159;-77
2020/12/04 02:10:23;;;;;;;31.52;21.33;;;1.60;99.90;;;;;;5055263;28;20070;-76
2020/12/04 02:12:50;;;;;;;32.13;20.35;;;1.60;99.90;;;;;;5066626;28;20041;-77
2020/12/04 02:15:17;;;;;;;33.70;19.50;;;1.60;99.90;;;;;;5049538;28;20072;-77
2020/12/04 02:17:44;;;;;;;26.35;19.25;;;1.60;99.90;;;;;;5065398;28;20055;-76
2020/12/04 02:20:12;;;;;;;29.90;20.52;;;1.60;99.90;;;;;;5079146;28;20048;-76
2020/12/04 02:22:39;;;;;;;33.67;20.90;;;1.60;99.90;;;;;;5070684;28;20044;-77
2020/12/04 02:25:08;;;;;;;35.25;21.40;;;1.60;99.90;;;;;;5070069;28;20040;-77
2020/12/04 02:27:44;;;;;;;30.90;20.52;;;1.60;99.90;;;;;;5087857;28;20437;-76
2020/12/04 02:30:22;;;;;;;31.85;20.02;;;1.60;99.90;;;;;;5086085;28;20048;-77
2020/12/04 02:32:48;;;;;;;30.27;21.52;;;1.60;99.90;;;;;;5066730;28;20044;-77
2020/12/04 02:35:14;;;;;;;34.85;19.98;;;1.60;99.90;;;;;;5049601;28;20044;-76
2020/12/04 02:37:41;;;;;;;23.33;18.10;;;1.50;99.90;;;;;;5071993;28;20124;-76
2020/12/04 02:40:07;;;;;;;32.03;19.70;;;1.60;99.90;;;;;;5086749;28;20048;-75
2020/12/04 02:42:33;;;;;;;33.72;20.50;;;1.60;99.90;;;;;;5084129;28;20109;-75
2020/12/04 02:44:59;;;;;;;33.40;21.23;;;1.50;99.90;;;;;;5051480;28;20036;-76
2020/12/04 02:47:26;;;;;;;25.45;17.30;;;1.60;99.90;;;;;;5078068;28;20074;-76
2020/12/04 02:49:53;;;;;;;33.33;19.27;;;1.60;99.90;;;;;;5094406;28;20051;-77
2020/12/04 02:52:23;;;;;;;35.95;22.50;;;1.60;99.90;;;;;;5081107;28;20051;-78
2020/12/04 02:54:50;;;;;;;34.80;21.65;;;1.70;99.90;;;;;;5086563;28;20071;-76
2020/12/04 02:57:16;;;;;;;32.67;21.50;;;1.60;99.90;;;;;;5094232;28;20052;-76
2020/12/04 02:59:43;;;;;;;34.47;22.60;;;1.60;99.90;;;;;;5085811;28;20055;-76
2020/12/04 03:02:09;;;;;;;35.45;20.83;;;1.60;99.90;;;;;;5068901;28;20298;-77
2020/12/04 03:04:37;;;;;;;28.00;20.08;;;1.60;99.90;;;;;;5084127;28;20058;-76
2020/12/04 03:07:04;;;;;;;31.65;22.00;;;1.60;99.90;;;;;;5086636;28;20139;-77
2020/12/04 03:09:30;;;;;;;33.33;20.45;;;1.60;99.90;;;;;;5084776;28;20078;-77
2020/12/04 03:11:58;;;;;;;30.60;21.55;;;1.60;99.90;;;;;;5068963;28;20055;-77
2020/12/04 03:14:25;;;;;;;31.17;20.92;;;1.60;99.90;;;;;;5068171;28;20117;-76
2020/12/04 03:16:52;;;;;;;34.72;21.88;;;1.60;99.90;;;;;;5076033;28;20567;-76
2020/12/04 03:19:19;;;;;;;29.02;20.23;;;1.60;99.90;;;;;;5085563;28;20432;-76
2020/12/04 03:21:45;;;;;;;33.28;21.00;;;1.60;99.90;;;;;;5100530;28;20052;-76
2020/12/04 03:24:12;;;;;;;30.48;21.83;;;1.60;99.90;;;;;;5105435;28;20037;-77
2020/12/04 03:26:38;;;;;;;35.50;21.35;;;1.60;99.90;;;;;;5098219;28;20086;-76
2020/12/04 03:29:05;;;;;;;31.05;19.80;;;1.60;99.90;;;;;;5085860;28;20048;-76
2020/12/04 03:31:31;;;;;;;28.48;20.00;;;1.60;99.90;;;;;;5085259;28;20044;-77
2020/12/04 03:33:58;;;;;;;36.35;22.70;;;1.60;99.90;;;;;;5067407;28;20056;-76
2020/12/04 03:36:24;;;;;;;33.67;21.60;;;1.60;99.90;;;;;;5081926;28;20546;-76
2020/12/04 03:38:50;;;;;;;38.13;22.75;;;1.60;99.90;;;;;;5066439;28;20045;-76
2020/12/04 03:41:17;;;;;;;32.92;22.67;;;1.60;99.90;;;;;;5065295;28;20048;-76
2020/12/04 03:43:43;;;;;;;30.23;19.92;;;1.70;99.90;;;;;;5066335;28;20044;-76
2020/12/04 03:46:13;;;;;;;35.28;20.85;;;1.60;99.90;;;;;;5079794;28;20689;-77
2020/12/04 03:48:40;;;;;;;31.90;20.83;;;1.60;99.90;;;;;;5090843;28;20040;-77
2020/12/04 03:51:07;;;;;;;28.90;19.83;;;1.60;99.90;;;;;;5097068;28;20047;-77
2020/12/04 03:53:35;;;;;;;27.17;19.20;;;1.60;99.90;;;;;;5105176;28;20488;-77
2020/12/04 03:56:01;;;;;;;38.47;23.30;;;1.60;99.90;;;;;;5087652;28;20165;-77
2020/12/04 03:58:28;;;;;;;33.28;20.77;;;1.60;99.90;;;;;;5083510;28;20056;-76
2020/12/04 04:00:55;;;;;;;33.70;21.15;;;1.60;99.90;;;;;;5067791;28;20048;-76
2020/12/04 04:03:21;;;;;;;35.65;22.27;;;1.60;99.90;;;;;;5084066;28;20060;-77
2020/12/04 04:05:48;;;;;;;32.78;20.95;;;1.50;99.90;;;;;;5047183;28;20750;-76
2020/12/04 04:08:14;;;;;;;37.25;21.80;;;1.50;99.90;;;;;;5048164;28;20139;-76
2020/12/04 04:10:41;;;;;;;29.67;18.58;;;1.50;99.90;;;;;;5064732;28;20064;-76
2020/12/04 04:13:08;;;;;;;27.67;17.63;;;1.50;99.90;;;;;;5067838;28;20774;-77
2020/12/04 04:15:35;;;;;;;40.45;22.02;;;1.50;99.90;;;;;;5082494;28;20056;-76
2020/12/04 04:18:01;;;;;;;36.45;22.27;;;1.50;99.90;;;;;;5081226;28;20052;-76
2020/12/04 04:20:28;;;;;;;32.85;20.25;;;1.50;99.90;;;;;;5090875;28;20054;-77
2020/12/04 04:22:54;;;;;;;35.58;21.75;;;1.50;99.90;;;;;;5105718;28;20058;-77
2020/12/04 04:25:21;;;;;;;36.47;19.98;;;1.50;99.90;;;;;;5104202;28;20057;-75
2020/12/04 04:27:47;;;;;;;37.90;21.45;;;1.50;99.90;;;;;;5093151;28;20101;-75
2020/12/04 04:30:14;;;;;;;36.53;20.13;;;1.50;99.90;;;;;;5084533;28;20493;-75
2020/12/04 04:32:40;;;;;;;37.45;21.98;;;1.50;99.90;;;;;;5083723;28;20381;-76
2020/12/04 04:35:07;;;;;;;35.17;20.67;;;1.50;99.90;;;;;;5083577;28;20062;-76
2020/12/04 04:37:34;;;;;;;31.17;17.95;;;1.50;99.90;;;;;;5084064;28;20116;-76
2020/12/04 04:40:01;;;;;;;34.67;22.08;;;1.50;99.90;;;;;;5066660;28;20059;-76
2020/12/04 04:42:27;;;;;;;36.55;22.42;;;1.50;99.90;;;;;;5082469;28;20048;-76
2020/12/04 04:44:55;;;;;;;33.40;21.02;;;1.50;99.90;;;;;;5084189;28;20048;-76
2020/12/04 04:47:28;;;;;;;27.27;18.92;;;1.50;99.90;;;;;;5044808;28;20049;-76
2020/12/04 04:49:55;;;;;;;29.88;19.67;;;1.50;99.90;;;;;;5089604;28;20044;-77
2020/12/04 04:52:21;;;;;;;37.25;20.38;;;1.60;99.90;;;;;;5102263;28;20055;-76
2020/12/04 04:54:49;;;;;;;38.80;21.85;;;1.50;99.90;;;;;;5102819;28;20300;-76
2020/12/04 04:57:20;;;;;;;34.20;19.17;;;1.50;99.90;;;;;;5082850;28;20522;-76
2020/12/04 04:59:54;;;;;;;36.53;21.33;;;1.50;99.90;;;;;;5082818;28;20052;-77
2020/12/04 05:02:22;;;;;;;37.70;22.10;;;1.60;99.90;;;;;;5066517;28;20064;-77
2020/12/04 05:04:54;;;;;;;33.65;20.05;;;1.60;99.90;;;;;;5081893;28;20056;-75
2020/12/04 05:07:29;;;;;;;32.03;20.35;;;1.60;99.90;;;;;;5057248;28;20109;-77
2020/12/04 05:10:10;;;;;;;;;;;1.60;99.90;;;;;;5065887;28;20059;-76
2020/12/04 05:12:38;;;;;;;37.83;23.02;;;1.60;99.90;;;;;;5059849;28;19920;-76
2020/12/04 05:15:24;;;;;;;27.75;19.98;;;1.50;99.90;;;;;;5083366;28;20138;-76
2020/12/04 05:18:15;;;;;;;29.67;21.80;;;1.50;99.90;;;;;;5083329;28;20056;-75
2020/12/04 05:20:43;;;;;;;32.72;20.45;;;1.50;99.90;;;;;;5084178;28;20135;-76
2020/12/04 05:23:10;;;;;;;38.47;23.23;;;1.50;99.90;;;;;;5075882;28;20056;-77
2020/12/04 05:25:42;;;;;;;24.88;17.40;;;1.50;99.90;;;;;;5063105;28;20131;-77
2020/12/04 05:28:22;;;;;;;36.10;22.70;;;1.40;99.90;;;;;;5036488;28;20632;-76
2020/12/04 05:31:10;;;;;;;36.13;23.40;;;1.40;99.90;;;;;;5069746;28;20067;-77
2020/12/04 05:33:39;;;;;;;40.25;22.73;;;1.40;99.90;;;;;;5083976;28;20052;-76
2020/12/04 05:36:06;;;;;;;33.92;20.63;;;1.40;99.90;;;;;;5083332;28;20895;-76
2020/12/04 05:38:32;;;;;;;36.08;21.60;;;1.40;99.90;;;;;;5058545;28;20180;-76
2020/12/04 05:41:07;;;;;;;32.40;21.48;;;1.40;99.90;;;;;;5070201;28;20044;-76
2020/12/04 05:43:38;;;;;;;37.80;21.85;;;1.40;99.90;;;;;;5085809;28;20051;-76
2020/12/04 05:46:23;;;;;;;34.00;21.42;;;1.50;99.90;;;;;;5086278;28;20052;-76
2020/12/04 05:48:59;;;;;;;44.10;24.00;;;1.50;99.90;;;;;;5093113;28;20055;-76
2020/12/04 05:51:30;;;;;;;38.70;21.20;;;1.50;99.90;;;;;;5089153;28;20045;-76
2020/12/04 05:53:58;;;;;;;30.48;18.17;;;1.50;99.90;;;;;;5108542;28;20064;-76
2020/12/04 05:56:24;;;;;;;39.92;21.98;;;1.60;99.90;;;;;;5092355;28;20431;-76
2020/12/04 05:58:56;;;;;;;44.80;23.38;;;1.60;99.90;;;;;;5084502;28;20052;-77
2020/12/04 06:01:24;;;;;;;33.85;20.33;;;1.60;99.90;;;;;;5061287;28;20067;-76
2020/12/04 06:03:52;;;;;;;34.92;19.08;;;1.60;99.90;;;;;;5064557;28;20057;-76
2020/12/04 06:06:23;;;;;;;37.92;21.65;;;1.60;99.90;;;;;;5039465;28;20528;-76
2020/12/04 06:08:53;;;;;;;28.55;18.38;;;1.70;99.90;;;;;;5068626;28;20052;-78
2020/12/04 06:11:21;;;;;;;40.63;22.70;;;1.70;99.90;;;;;;5086210;28;20143;-77
2020/12/04 06:13:47;;;;;;;37.25;19.50;;;1.70;99.90;;;;;;5068749;28;20082;-76
2020/12/04 06:16:15;;;;;;;32.58;20.17;;;1.70;99.90;;;;;;5056472;28;20044;-77
2020/12/04 06:18:43;;;;;;;33.72;19.08;;;1.70;99.90;;;;;;5081186;28;20066;-76
2020/12/04 06:21:10;;;;;;;33.25;18.35;;;1.80;99.90;;;;;;5084423;28;20097;-76
2020/12/04 06:23:36;;;;;;;33.78;19.45;;;1.70;99.90;;;;;;5085363;28;20163;-76
2020/12/04 06:26:07;;;;;;;38.05;19.50;;;1.80;99.90;;;;;;5083368;28;20067;-77
2020/12/04 06:28:38;;;;;;;35.33;19.52;;;1.80;99.90;;;;;;5069576;28;20047;-76
2020/12/04 06:31:08;;;;;;;37.38;19.23;;;1.80;99.90;;;;;;5075165;28;20500;-76
2020/12/04 06:33:40;;;;;;;33.55;19.60;;;1.80;99.90;;;;;;5066966;28;20055;-76
2020/12/04 06:36:09;;;;;;;33.15;18.90;;;1.80;99.90;;;;;;5085203;28;20633;-77
2020/12/04 06:38:38;;;;;;;36.42;20.40;;;1.90;99.90;;;;;;5084166;28;20056;-77
2020/12/04 06:41:30;;;;;;;38.28;19.83;;;1.90;99.90;;;;;;5085596;28;20445;-76
2020/12/04 06:44:02;;;;;;;32.00;19.40;;;1.90;99.90;;;;;;5085608;28;20501;-77
2020/12/04 06:46:36;;;;;;;35.17;19.52;;;1.90;99.90;;;;;;5048202;28;20040;-76
2020/12/04 06:52:17;;;;;;;31.08;17.13;;;2.00;99.90;;;;;;5099565;28;20054;-77
2020/12/04 06:54:51;;;;;;;35.37;18.07;;;2.00;99.90;;;;;;5065684;28;20059;-77
2020/12/04 06:57:20;;;;;;;24.85;15.90;;;2.10;99.90;;;;;;5047857;28;20059;-76
2020/12/04 06:59:47;;;;;;;34.47;18.77;;;2.10;99.90;;;;;;5085772;28;20056;-77
2020/12/04 07:02:17;;;;;;;31.58;17.77;;;2.10;99.90;;;;;;5087220;28;20060;-77
2020/12/04 07:04:46;;;;;;;30.55;17.85;;;2.20;99.90;;;;;;5068784;28;20086;-76
2020/12/04 07:07:18;;;;;;;29.98;17.10;;;2.20;99.90;;;;;;5088024;28;20036;-77
2020/12/04 07:09:58;;;;;;;27.65;17.02;;;2.30;99.90;;;;;;5076623;28;20057;-77
2020/12/04 07:12:27;;;;;;;32.78;19.00;;;2.30;99.90;;;;;;5060199;28;20719;-76
2020/12/04 07:14:55;;;;;;;31.80;19.48;;;2.30;99.90;;;;;;5064864;28;20134;-76
2020/12/04 07:17:24;;;;;;;29.08;17.70;;;2.40;99.90;;;;;;5056519;28;20579;-77
2020/12/04 07:19:53;;;;;;;28.20;17.35;;;2.40;99.90;;;;;;5054445;28;20056;-75
2020/12/04 07:22:22;;;;;;;29.92;17.67;;;2.40;99.90;;;;;;5063704;28;20583;-75
2020/12/04 07:24:50;;;;;;;27.00;15.10;;;2.40;99.90;;;;;;5063181;28;20071;-77
2020/12/04 07:27:28;;;;;;;32.75;18.02;;;2.40;99.90;;;;;;5063658;28;20041;-76
2020/12/04 07:29:54;;;;;;;24.10;15.95;;;2.40;99.90;;;;;;5065866;28;20339;-78
2020/12/04 07:32:22;;;;;;;27.45;15.90;;;2.50;99.90;;;;;;5043997;28;20421;-75
2020/12/04 07:34:49;;;;;;;31.08;18.42;;;2.50;99.90;;;;;;5047471;28;20049;-75
2020/12/04 07:37:16;;;;;;;22.02;13.90;;;2.60;99.90;;;;;;5047869;28;20080;-76
2020/12/04 07:39:44;;;;;;;25.55;16.90;;;2.60;99.90;;;;;;5030488;28;20063;-78
2020/12/04 07:42:12;;;;;;;24.90;16.60;;;2.60;99.90;;;;;;5045948;28;20364;-76
2020/12/04 07:44:41;;;;;;;24.13;16.05;;;2.60;99.90;;;;;;5064208;28;20147;-76
2020/12/04 07:47:16;;;;;;;25.83;17.17;;;2.70;99.90;;;;;;5065549;28;20048;-76
2020/12/04 07:49:47;;;;;;;20.30;13.85;;;2.70;99.90;;;;;;5050179;28;20151;-76
2020/12/04 07:52:26;;;;;;;21.80;14.85;;;2.70;99.90;;;;;;5055911;28;20497;-78
2020/12/04 07:55:07;;;;;;;21.77;14.82;;;2.70;99.90;;;;;;5064918;28;20049;-76
2020/12/04 07:57:43;;;;;;;20.63;14.50;;;2.80;99.90;;;;;;5048989;28;20512;-77
2020/12/04 08:00:14;;;;;;;21.20;14.15;;;2.80;99.90;;;;;;5070547;28;20052;-75
2020/12/04 08:02:40;;;;;;;20.05;14.38;;;2.90;99.90;;;;;;5055821;28;20056;-73
2020/12/04 08:05:07;;;;;;;15.95;13.00;;;3.00;99.90;;;;;;5062051;28;20225;-74
2020/12/04 08:07:34;;;;;;;20.73;14.93;;;3.00;99.90;;;;;;5063093;28;20780;-74
2020/12/04 08:10:01;;;;;;;15.40;13.52;;;3.00;99.90;;;;;;5047298;28;20416;-74
2020/12/04 08:12:32;;;;;;;18.17;14.18;;;3.10;99.90;;;;;;5064572;28;20424;-74
2020/12/04 08:15:01;;;;;;;22.83;15.80;;;3.10;99.90;;;;;;5065260;28;20048;-75
2020/12/04 08:17:29;;;;;;;25.63;17.00;;;3.10;99.90;;;;;;5064155;28;20146;-74
2020/12/04 08:19:59;;;;;;;19.95;15.02;;;3.20;99.90;;;;;;5061221;28;20175;-74
2020/12/04 08:22:33;;;;;;;17.90;13.70;;;3.20;99.90;;;;;;5064710;28;20620;-74
2020/12/04 08:27:41;;;;;;;21.30;15.23;;;3.20;99.90;;;;;;5058549;28;20045;-74
2020/12/04 08:30:16;;;;;;;21.65;14.65;;;3.20;99.90;;;;;;5056480;28;20102;-74
2020/12/04 08:32:58;;;;;;;20.85;15.43;;;3.30;99.90;;;;;;5047840;28;20132;-74
2020/12/04 08:35:31;;;;;;;22.58;15.55;;;3.20;99.90;;;;;;5050087;28;20052;-75
2020/12/04 08:38:12;;;;;;;24.42;15.75;;;3.30;99.90;;;;;;5061038;28;20040;-75
2020/12/04 08:40:42;;;;;;;19.45;15.18;;;3.30;99.90;;;;;;5036796;28;20639;-75
2020/12/04 08:43:14;;;;;;;23.83;14.93;;;3.30;99.90;;;;;;5082581;28;20058;-75
2020/12/04 08:45:48;;;;;;;21.73;15.40;;;3.40;99.90;;;;;;5085035;28;20122;-74
2020/12/04 08:48:17;;;;;;;21.33;15.70;;;3.40;99.90;;;;;;5079740;28;20489;-75
2020/12/04 08:50:48;;;;;;;19.25;15.90;;;3.40;99.90;;;;;;5061830;28;20059;-75
2020/12/04 08:53:19;;;;;;;21.33;16.95;;;3.40;99.90;;;;;;5064287;28;20085;-75
2020/12/04 08:55:54;;;;;;;21.77;16.58;;;3.40;99.90;;;;;;5045313;28;20466;-75
2020/12/04 08:58:21;;;;;;;;;;;3.40;99.90;;;;;;5045920;28;20373;-75
2020/12/04 09:00:49;;;;;;;20.50;16.58;;;3.50;99.90;;;;;;5062612;28;20392;-76
2020/12/04 09:03:16;;;;;;;22.83;17.25;;;3.40;99.90;;;;;;5043512;28;20052;-75
2020/12/04 09:05:43;;;;;;;19.02;14.50;;;3.50;99.90;;;;;;5046129;28;20044;-76
2020/12/04 09:08:10;;;;;;;23.55;15.85;;;3.50;99.90;;;;;;5063023;28;20044;-75
2020/12/04 09:10:37;;;;;;;26.17;16.35;;;3.50;99.90;;;;;;5063394;28;20053;-76
2020/12/04 09:13:05;;;;;;;20.92;15.90;;;3.60;99.90;;;;;;5061968;28;20159;-75
2020/12/04 09:15:32;;;;;;;19.73;15.20;;;3.50;99.90;;;;;;5063963;28;20061;-75
2020/12/04 09:18:00;;;;;;;17.98;13.98;;;3.60;99.90;;;;;;5028976;28;20053;-75
2020/12/04 09:20:26;;;;;;;18.58;14.70;;;3.60;99.90;;;;;;5057141;28;20044;-76
2020/12/04 09:22:53;;;;;;;18.15;15.20;;;3.60;99.90;;;;;;5045917;28;20048;-76
2020/12/04 09:25:21;;;;;;;18.40;13.80;;;3.70;99.90;;;;;;5045926;28;20041;-76
2020/12/04 09:27:49;;;;;;;18.48;14.32;;;3.70;99.90;;;;;;5062367;28;20052;-75
2020/12/04 09:30:17;;;;;;;19.73;15.52;;;3.70;99.90;;;;;;5062664;28;20051;-76
2020/12/04 09:32:45;;;;;;;19.35;15.40;;;3.70;99.90;;;;;;5062753;28;20048;-74
2020/12/04 09:35:12;;;;;;;22.48;14.95;;;3.80;99.90;;;;;;5061347;28;20101;-75
2020/12/04 09:37:39;;;;;;;17.25;14.68;;;3.90;99.90;;;;;;5062485;28;20053;-74
2020/12/04 09:40:09;;;;;;;15.75;14.05;;;3.90;99.90;;;;;;5065586;28;20048;-75
2020/12/04 09:42:36;;;;;;;16.13;14.15;;;3.90;99.90;;;;;;5083033;28;20056;-76
2020/12/04 09:45:04;;;;;;;18.95;16.15;;;4.00;99.90;;;;;;5060253;28;20059;-74
2020/12/04 09:47:31;;;;;;;16.90;13.30;;;4.00;99.90;;;;;;5073179;28;20047;-75
2020/12/04 09:49:59;;;;;;;16.73;14.48;;;4.00;99.90;;;;;;5060041;28;20044;-75
2020/12/04 09:52:26;;;;;;;21.73;16.23;;;4.00;99.90;;;;;;5044588;28;20132;-75
2020/12/04 09:54:56;;;;;;;18.73;13.57;;;3.90;99.90;;;;;;5044474;28;20514;-74
2020/12/04 09:57:22;;;;;;;20.30;15.82;;;4.00;99.90;;;;;;5043934;28;20059;-74
2020/12/04 09:59:49;;;;;;;22.70;16.33;;;4.00;99.90;;;;;;5043029;28;20053;-74
2020/12/04 10:02:15;;;;;;;23.42;15.88;;;4.00;99.90;;;;;;5042573;28;20049;-75
2020/12/04 10:04:42;;;;;;;18.58;14.40;;;4.00;99.90;;;;;;5025922;28;20076;-76
2020/12/04 10:07:09;;;;;;;17.15;14.30;;;4.00;99.90;;;;;;5042636;28;20060;-76
2020/12/04 10:09:36;;;;;;;15.45;13.00;;;4.20;99.90;;;;;;5036707;28;20048;-76
2020/12/04 10:12:04;;;;;;;19.35;14.18;;;4.10;99.90;;;;;;5045923;28;20155;-75
2020/12/04 10:14:32;;;;;;;15.05;13.48;;;4.20;99.90;;;;;;5063461;28;20053;-76
2020/12/04 10:16:59;;;;;;;16.05;14.35;;;4.20;99.90;;;;;;5041410;28;20417;-76
2020/12/04 10:19:26;;;;;;;17.67;14.15;;;4.20;99.90;;;;;;5055755;28;20555;-76
2020/12/04 10:21:53;;;;;;;19.40;14.23;;;4.30;99.90;;;;;;5061339;28;20052;-75
2020/12/04 10:24:19;;;;;;;20.83;15.30;;;4.30;99.90;;;;;;5057004;28;20225;-75
2020/12/04 10:26:49;;;;;;;17.02;15.23;;;4.30;99.90;;;;;;5032192;28;20044;-75
2020/12/04 10:29:17;;;;;;;17.77;15.10;;;4.30;99.90;;;;;;5031333;28;20425;-75
2020/12/04 10:31:44;;;;;;;20.15;16.02;;;4.30;99.90;;;;;;5065840;28;20052;-74
2020/12/04 10:34:11;;;;;;;17.80;14.52;;;4.40;99.90;;;;;;5047666;28;20045;-76
2020/12/04 10:36:38;;;;;;;14.73;13.32;;;4.40;99.90;;;;;;5059791;28;20532;-76
2020/12/04 10:39:06;;;;;;;18.17;13.95;;;4.40;99.90;;;;;;5062580;28;20260;-74
2020/12/04 10:41:35;;;;;;;17.48;13.85;;;4.50;99.90;;;;;;5058921;28;20525;-76
2020/12/04 10:44:04;;;;;;;19.50;15.23;;;4.50;99.90;;;;;;5042556;28;20059;-75
2020/12/04 10:46:31;;;;;;;17.55;13.57;;;4.50;99.90;;;;;;5045638;28;20426;-76
2020/12/04 10:48:57;;;;;;;16.88;15.18;;;4.60;99.90;;;;;;5054302;28;20040;-75
2020/12/04 10:51:24;;;;;;;16.02;14.18;;;4.70;99.90;;;;;;5064298;28;20472;-74
2020/12/04 10:53:51;;;;;;;15.68;14.07;;;4.70;99.90;;;;;;5059567;28;20051;-74
2020/12/04 10:56:22;;;;;;;15.88;14.23;;;4.80;99.90;;;;;;5052375;28;20060;-75
2020/12/04 10:58:49;;;;;;;15.60;14.13;;;4.80;99.90;;;;;;5034984;28;20045;-75
2020/12/04 11:01:34;;;;;;;16.52;14.73;;;4.80;99.90;;;;;;5057397;28;20095;-75
2020/12/04 11:06:45;;;;;;;17.42;13.80;;;4.90;99.90;;;;;;5056506;28;20819;-76
2020/12/04 11:09:11;;;;;;;15.40;13.85;;;5.00;99.90;;;;;;5063660;28;20143;-75
2020/12/04 11:11:37;;;;;;;17.60;14.80;;;5.00;99.90;;;;;;5048272;28;20055;-74
2020/12/04 11:14:04;;;;;;;17.25;14.88;;;5.00;99.90;;;;;;5061076;28;20124;-73
2020/12/04 11:16:30;;;;;;;14.73;13.13;;;5.10;99.90;;;;;;5054351;28;20210;-73
2020/12/04 11:18:57;;;;;;;15.18;13.70;;;5.20;99.90;;;;;;5053160;28;20056;-74
2020/12/04 11:21:27;;;;;;;14.32;12.93;;;5.20;99.90;;;;;;5060935;28;20417;-74
2020/12/04 11:23:53;;;;;;;14.00;12.60;;;5.30;99.90;;;;;;5053565;28;20078;-74
2020/12/04 11:26:20;;;;;;;13.60;12.20;;;5.30;99.90;;;;;;5065263;28;20322;-74
2020/12/04 11:28:46;;;;;;;16.33;14.02;;;5.30;99.90;;;;;;5064902;28;20055;-74
2020/12/04 11:31:12;;;;;;;25.95;19.33;;;5.30;99.90;;;;;;5066623;28;20044;-73
2020/12/04 11:33:39;;;;;;;20.00;16.83;;;5.30;99.90;;;;;;5034097;28;20421;-71
2020/12/04 11:36:05;;;;;;;19.33;16.52;;;5.30;99.90;;;;;;5062156;28;20056;-73
2020/12/04 11:38:31;;;;;;;20.27;18.17;;;5.40;99.90;;;;;;5064618;28;20056;-74
2020/12/04 11:40:58;;;;;;;25.08;20.55;;;5.50;99.90;;;;;;5055525;28;20103;-73
2020/12/04 11:43:24;;;;;;;22.88;18.45;;;5.50;99.90;;;;;;5064683;28;20121;-74
2020/12/04 11:45:50;;;;;;;19.58;16.35;;;5.50;99.90;;;;;;5063514;28;20044;-73
2020/12/04 11:48:19;;;;;;;18.05;15.95;;;5.40;99.90;;;;;;5056130;28;20098;-73
2020/12/04 11:50:47;;;;;;;20.08;16.88;;;5.50;99.90;;;;;;5045525;28;20056;-74
2020/12/04 11:53:14;;;;;;;20.17;16.77;;;5.50;99.90;;;;;;5057927;28;20237;-74
2020/12/04 11:55:40;;;;;;;19.08;17.27;;;5.50;99.90;;;;;;5040248;28;20057;-74
2020/12/04 11:58:07;;;;;;;18.50;16.60;;;5.60;99.90;;;;;;5046136;28;20053;-74
2020/12/04 12:00:33;;;;;;;15.43;13.98;;;5.60;99.90;;;;;;5013047;28;20147;-74
2020/12/04 12:03:00;;;;;;;17.15;15.02;;;5.60;99.90;;;;;;5046942;28;20044;-73
2020/12/04 12:05:26;;;;;;;17.45;15.77;;;5.60;99.90;;;;;;5050876;28;20509;-73
2020/12/04 12:07:54;;;;;;;19.70;17.25;;;5.70;99.90;;;;;;5051512;28;20037;-74
2020/12/04 12:10:20;;;;;;;16.60;15.07;;;5.80;99.90;;;;;;5061365;28;20060;-74
2020/12/04 12:12:47;;;;;;;18.92;16.15;;;5.90;99.90;;;;;;5037576;28;20053;-73
2020/12/04 12:15:13;;;;;;;18.58;16.98;;;6.00;99.90;;;;;;5060569;28;20139;-74
2020/12/04 12:17:39;;;;;;;16.10;14.60;;;6.00;99.90;;;;;;5064873;28;20048;-74
2020/12/04 12:20:06;;;;;;;17.02;14.80;;;6.00;99.90;;;;;;5062450;28;20045;-73
2020/12/04 12:22:32;;;;;;;16.30;14.65;;;6.10;99.90;;;;;;5064185;28;20067;-74
2020/12/04 12:24:58;;;;;;;19.85;15.48;;;6.20;99.90;;;;;;5048529;28;20407;-73
2020/12/04 12:27:25;;;;;;;16.95;14.93;;;6.20;99.90;;;;;;5032203;28;20409;-74
2020/12/04 12:29:51;;;;;;;16.05;14.50;;;6.20;99.90;;;;;;5062041;28;20048;-73
2020/12/04 12:32:17;;;;;;;16.15;14.65;;;6.30;99.90;;;;;;5064167;28;20059;-74
2020/12/04 12:35:06;;;;;;;15.85;14.43;;;6.40;99.90;;;;;;5064071;28;20709;-73
2020/12/04 12:37:33;;;;;;;15.50;14.10;;;6.50;99.90;;;;;;5064699;28;20113;-73
2020/12/04 12:40:02;;;;;;;15.25;13.95;;;6.60;99.90;;;;;;5061906;28;20041;-72
2020/12/04 12:42:28;;;;;;;15.98;14.70;;;6.70;99.90;;;;;;5060733;28;20080;-73
2020/12/04 12:44:55;;;;;;;14.27;13.15;;;6.90;99.90;;;;;;5054932;28;20137;-73
2020/12/04 12:47:21;;;;;;;13.40;12.32;;;6.80;99.90;;;;;;5052146;28;20041;-74
2020/12/04 12:49:47;;;;;;;14.43;13.23;;;6.80;99.90;;;;;;5058526;28;20059;-74
2020/12/04 12:52:14;;;;;;;14.95;13.65;;;6.70;99.90;;;;;;5055933;28;20121;-74